createdAt,value
2022-12-01T00:01:07.759Z,102416.66
2022-12-01T00:03:34.723Z,102411.69
2022-12-01T00:06:06.846Z,102405.28
2022-12-01T00:08:34.348Z,102408.84
2022-12-01T00:11:12.184Z,102419.38
2022-12-01T00:13:38.869Z,102421.22
2022-12-01T00:16:13.475Z,102420.69
2022-12-01T00:18:40.395Z,102408.72
2022-12-01T00:21:13.282Z,102413.97
2022-12-01T00:23:43.692Z,102412.69
2022-12-01T00:26:10.296Z,102399.81
2022-12-01T00:28:36.879Z,102406.03
2022-12-01T00:31:08.147Z,102412.16
2022-12-01T00:33:34.761Z,102416.25
2022-12-01T00:36:02.363Z,102416.25
2022-12-01T00:38:29.529Z,102415.56
2022-12-01T00:40:56.436Z,102414.16
2022-12-01T00:43:24.324Z,102411.72
2022-12-01T00:45:51.864Z,102410.47
2022-12-01T00:48:18.488Z,102407.63
2022-12-01T00:50:45.635Z,102419.00
2022-12-01T00:53:12.274Z,102413.03
2022-12-01T00:55:40.214Z,102416.72
2022-12-01T00:58:07.584Z,102416.72
2022-12-01T01:00:34.469Z,102423.13
2022-12-01T01:03:01.439Z,102428.22
2022-12-01T01:05:28.178Z,102423.81
2022-12-01T01:07:55.064Z,102424.66
2022-12-01T01:10:22.759Z,102425.53
2022-12-01T01:12:49.516Z,102417.56
2022-12-01T01:15:16.102Z,102414.63
2022-12-01T01:17:42.686Z,102425.66
2022-12-01T01:20:09.903Z,102428.94
2022-12-01T01:22:36.499Z,102425.13
2022-12-01T01:25:03.204Z,102428.53
2022-12-01T01:27:29.780Z,102425.81
2022-12-01T01:29:56.381Z,102418.72
2022-12-01T01:32:22.971Z,102429.53
2022-12-01T01:34:49.577Z,102420.97
2022-12-01T01:37:16.153Z,102419.56
2022-12-01T01:39:42.749Z,102415.88
2022-12-01T01:42:13.359Z,102417.00
2022-12-01T01:44:46.010Z,102418.13
2022-12-01T01:47:13.477Z,102425.53
2022-12-01T01:49:41.331Z,102410.78
2022-12-01T01:52:08.311Z,102421.72
2022-12-01T01:54:39.944Z,102420.97
2022-12-01T01:57:09.862Z,102423.41
2022-12-01T01:59:43.794Z,102420.56
2022-12-01T02:02:11.981Z,102420.56
2022-12-01T02:04:41.874Z,102419.88
2022-12-01T02:07:10.013Z,102424.66
2022-12-01T02:09:36.639Z,102423.41
2022-12-01T02:12:24.833Z,102424.97
2022-12-01T02:15:04.900Z,102420.13
2022-12-01T02:17:54.721Z,102422.56
2022-12-01T02:20:40.062Z,102417.88
2022-12-01T02:23:38.346Z,102415.31
2022-12-01T02:26:29.831Z,102415.88
2022-12-01T02:29:23.225Z,102411.78
2022-12-01T02:32:17.214Z,102414.16
2022-12-01T02:35:07.792Z,102414.63
2022-12-01T02:37:44.390Z,102415.03
2022-12-01T02:40:33.832Z,102415.88
2022-12-01T02:43:02.926Z,102416.56
2022-12-01T02:45:45.047Z,102409.31
2022-12-01T02:48:17.862Z,102411.19
2022-12-01T02:50:46.385Z,102406.22
2022-12-01T02:53:17.325Z,102410.22
2022-12-01T02:56:07.173Z,102408.47
2022-12-01T02:58:33.765Z,102406.38
2022-12-01T03:01:52.583Z,102408.06
2022-12-01T03:04:39.167Z,102419.28
2022-12-01T03:07:20.880Z,102407.06
2022-12-01T03:09:56.313Z,102411.91
2022-12-01T03:12:43.058Z,102407.06
2022-12-01T03:15:13.153Z,102417.56
2022-12-01T03:17:58.190Z,102414.16
2022-12-01T03:20:39.346Z,102407.78
2022-12-01T03:23:16.461Z,102409.91
2022-12-01T03:25:48.891Z,102413.19
2022-12-01T03:28:21.828Z,102408.38
2022-12-01T03:30:52.544Z,102413.88
2022-12-01T03:33:29.022Z,102408.78
2022-12-01T03:36:05.517Z,102411.06
2022-12-01T03:38:36.224Z,102403.94
2022-12-01T03:41:09.510Z,102408.06
2022-12-01T03:43:41.492Z,102404.53
2022-12-01T03:46:17.816Z,102405.38
2022-12-01T03:48:44.611Z,102403.66
2022-12-01T03:51:48.710Z,102407.06
2022-12-01T03:54:24.188Z,102410.47
2022-12-01T03:56:59.587Z,102413.31
2022-12-01T03:59:28.259Z,102415.31
2022-12-01T04:01:55.160Z,102404.22
2022-12-01T04:04:21.927Z,102397.56
2022-12-01T04:06:50.984Z,102405.94
2022-12-01T04:09:17.909Z,102404.22
2022-12-01T04:12:03.344Z,102410.06
2022-12-01T04:14:30.505Z,102407.06
2022-12-01T04:16:57.124Z,102407.91
2022-12-01T04:19:23.803Z,102402.13
2022-12-01T04:21:50.385Z,102405.81
2022-12-01T04:24:17.085Z,102412.31
2022-12-01T04:26:45.966Z,102413.31
2022-12-01T04:29:13.392Z,102406.78
2022-12-01T04:31:40.588Z,102412.91
2022-12-01T04:34:08.006Z,102410.63
2022-12-01T04:36:35.473Z,102415.16
2022-12-01T04:39:02.311Z,102417.88
2022-12-01T04:41:28.972Z,102409.63
2022-12-01T04:43:55.958Z,102412.47
2022-12-01T04:46:23.731Z,102421.56
2022-12-01T04:48:50.880Z,102406.50
2022-12-01T04:51:17.730Z,102421.72
2022-12-01T04:53:44.325Z,102422.41
2022-12-01T04:56:10.916Z,102426.13
2022-12-01T04:58:37.937Z,102438.91
2022-12-01T05:01:07.215Z,102432.66
2022-12-01T05:03:38.293Z,102436.75
2022-12-01T05:06:11.056Z,102445.00
2022-12-01T05:08:37.707Z,102436.75
2022-12-01T05:11:07.559Z,102437.22
2022-12-01T05:13:36.746Z,102437.06
2022-12-01T05:16:24.818Z,102438.47
2022-12-01T05:19:17.128Z,102431.66
2022-12-01T05:21:45.770Z,102429.66
2022-12-01T05:24:14.028Z,102441.59
2022-12-01T05:26:41.875Z,102439.63
2022-12-01T05:29:10.492Z,102438.06
2022-12-01T05:31:37.236Z,102446.31
2022-12-01T05:34:03.933Z,102442.75
2022-12-01T05:36:30.537Z,102442.00
2022-12-01T05:38:57.196Z,102443.72
2022-12-01T05:41:23.796Z,102442.88
2022-12-01T05:43:50.377Z,102442.75
2022-12-01T05:46:16.983Z,102443.16
2022-12-01T05:48:43.649Z,102446.00
2022-12-01T05:51:16.033Z,102442.03
2022-12-01T05:53:43.673Z,102442.47
2022-12-01T05:56:10.344Z,102446.84
2022-12-01T05:58:37.161Z,102443.00
2022-12-01T06:01:04.279Z,102445.16
2022-12-01T06:03:30.899Z,102436.63
2022-12-01T06:05:57.591Z,102440.59
2022-12-01T06:08:24.246Z,102435.75
2022-12-01T06:10:50.853Z,102433.50
2022-12-01T06:13:17.531Z,102434.91
2022-12-01T06:15:44.165Z,102425.56
2022-12-01T06:18:10.759Z,102436.63
2022-12-01T06:20:37.412Z,102429.81
2022-12-01T06:23:04.105Z,102436.47
2022-12-01T06:25:30.744Z,102440.47
2022-12-01T06:27:58.577Z,102451.97
2022-12-01T06:30:26.284Z,102456.53
2022-12-01T06:32:52.881Z,102450.25
2022-12-01T06:35:19.772Z,102453.81
2022-12-01T06:37:46.378Z,102450.97
2022-12-01T06:40:13.221Z,102457.06
2022-12-01T06:42:39.869Z,102453.66
2022-12-01T06:45:06.940Z,102466.47
2022-12-01T06:47:33.558Z,102465.88
2022-12-01T06:50:00.408Z,102461.47
2022-12-01T06:52:26.990Z,102470.44
2022-12-01T06:54:53.598Z,102466.31
2022-12-01T06:57:20.426Z,102475.81
2022-12-01T06:59:47.828Z,102476.13
2022-12-01T07:02:15.315Z,102478.69
2022-12-01T07:04:41.956Z,102472.72
2022-12-01T07:07:08.616Z,102481.53
2022-12-01T07:09:35.525Z,102480.13
2022-12-01T07:12:02.133Z,102477.25
2022-12-01T07:14:28.991Z,102483.22
2022-12-01T07:16:55.634Z,102479.25
2022-12-01T07:19:22.358Z,102489.47
2022-12-01T07:21:49.093Z,102494.75
2022-12-01T07:24:16.234Z,102482.38
2022-12-01T07:26:43.349Z,102479.53
2022-12-01T07:29:10.687Z,102488.50
2022-12-01T07:31:38.502Z,102500.00
2022-12-01T07:34:05.966Z,102492.16
2022-12-01T07:36:32.900Z,102488.63
2022-12-01T07:39:00.694Z,102492.16
2022-12-01T07:41:27.261Z,102492.91
2022-12-01T07:43:55.201Z,102492.91
2022-12-01T07:46:24.718Z,102492.16
2022-12-01T07:48:55.994Z,102495.16
2022-12-01T07:51:24.331Z,102493.31
2022-12-01T07:53:52.047Z,102488.34
2022-12-01T07:56:20.347Z,102487.22
2022-12-01T07:58:47.464Z,102489.22
2022-12-01T08:01:17.289Z,102483.81
2022-12-01T08:03:44.619Z,102489.91
2022-12-01T08:06:12.002Z,102486.06
2022-12-01T08:08:39.927Z,102487.75
2022-12-01T08:11:13.320Z,102492.16
2022-12-01T08:13:41.230Z,102491.47
2022-12-01T08:16:13.077Z,102493.75
2022-12-01T08:18:41.072Z,102493.16
2022-12-01T08:21:10.159Z,102496.88
2022-12-01T08:23:36.733Z,102498.41
2022-12-01T08:26:06.019Z,102496.72
2022-12-01T08:28:35.320Z,102494.72
2022-12-01T08:31:38.363Z,102493.47
2022-12-01T08:34:06.772Z,102487.75
2022-12-01T08:36:34.828Z,102490.22
2022-12-01T08:39:01.806Z,102490.75
2022-12-01T08:41:28.773Z,102505.41
2022-12-01T08:43:58.392Z,102500.56
2022-12-01T08:46:28.936Z,102510.53
2022-12-01T08:48:57.382Z,102509.81
2022-12-01T08:51:24.914Z,102506.81
2022-12-01T08:53:51.878Z,102512.91
2022-12-01T08:56:34.882Z,102507.94
2022-12-01T08:59:01.697Z,102515.50
2022-12-01T09:01:28.973Z,102510.22
2022-12-01T09:04:06.503Z,102511.66
2022-12-01T09:06:38.389Z,102515.91
2022-12-01T09:09:05.533Z,102524.44
2022-12-01T09:11:32.212Z,102521.75
2022-12-01T09:13:59.681Z,102525.31
2022-12-01T09:16:26.464Z,102523.31
2022-12-01T09:18:53.063Z,102523.59
2022-12-01T09:21:25.999Z,102515.75
2022-12-01T09:23:53.357Z,102515.91
2022-12-01T09:26:20.319Z,102515.22
2022-12-01T09:28:49.021Z,102518.31
2022-12-01T09:31:17.188Z,102527.56
2022-12-01T09:33:44.685Z,102520.03
2022-12-01T09:36:11.801Z,102513.66
2022-12-01T09:38:39.111Z,102515.34
2022-12-01T09:41:11.997Z,102512.50
2022-12-01T09:43:48.164Z,102516.22
2022-12-01T09:46:20.927Z,102519.75
2022-12-01T09:48:51.335Z,102511.06
2022-12-01T09:51:27.634Z,102511.50
2022-12-01T09:53:57.061Z,102512.81
2022-12-01T09:56:32.473Z,102504.41
2022-12-01T09:59:02.396Z,102496.59
2022-12-01T10:01:35.655Z,102494.88
2022-12-01T10:04:29.862Z,102491.75
2022-12-01T10:06:56.598Z,102490.63
2022-12-01T10:09:50.320Z,102495.44
2022-12-01T10:12:31.098Z,102486.91
2022-12-01T10:15:27.529Z,102490.75
2022-12-01T10:18:20.258Z,102494.75
2022-12-01T10:20:50.500Z,102483.81
2022-12-01T10:23:40.981Z,102485.06
2022-12-01T10:26:16.155Z,102482.38
2022-12-01T10:29:01.139Z,102482.09
2022-12-01T10:31:48.817Z,102482.97
2022-12-01T10:34:32.123Z,102485.06
2022-12-01T10:36:59.250Z,102482.09
2022-12-01T10:39:36.828Z,102477.97
2022-12-01T10:42:36.057Z,102476.72
2022-12-01T10:45:06.101Z,102467.31
2022-12-01T10:47:32.988Z,102463.22
2022-12-01T10:49:59.815Z,102456.38
2022-12-01T10:52:37.394Z,102463.22
2022-12-01T10:55:24.000Z,102462.47
2022-12-01T10:57:52.484Z,102462.91
2022-12-01T11:00:57.948Z,102465.06
2022-12-01T11:03:22.317Z,102457.66
2022-12-01T11:05:58.191Z,102458.06
2022-12-01T11:08:53.012Z,102465.75
2022-12-01T11:11:28.668Z,102459.78
2022-12-01T11:13:56.966Z,102458.22
2022-12-01T11:16:44.654Z,102453.41
2022-12-01T11:19:14.621Z,102448.56
2022-12-01T11:21:50.107Z,102454.09
2022-12-01T11:24:42.796Z,102449.69
2022-12-01T11:27:18.327Z,102456.66
2022-12-01T11:29:49.100Z,102451.41
2022-12-01T11:32:25.198Z,102457.09
2022-12-01T11:34:54.733Z,102452.25
2022-12-01T11:37:25.626Z,102454.25
2022-12-01T11:39:53.106Z,102448.84
2022-12-01T11:42:26.786Z,102448.56
2022-12-01T11:45:09.051Z,102450.25
2022-12-01T11:47:35.692Z,102448.28
2022-12-01T11:50:22.817Z,102445.41
2022-12-01T11:52:49.455Z,102438.75
2022-12-01T11:55:15.985Z,102443.16
2022-12-01T11:57:44.671Z,102437.63
2022-12-01T12:00:16.489Z,102441.03
2022-12-01T12:02:43.084Z,102429.38
2022-12-01T12:05:18.549Z,102437.91
2022-12-01T12:08:15.021Z,102441.72
2022-12-01T12:11:13.996Z,102433.22
2022-12-01T12:14:02.550Z,102445.31
2022-12-01T12:16:55.531Z,102446.41
2022-12-01T12:19:52.481Z,102444.31
2022-12-01T12:22:42.157Z,102441.03
2022-12-01T12:25:35.004Z,102442.88
2022-12-01T12:28:23.312Z,102438.75
2022-12-01T12:31:03.044Z,102428.97
2022-12-01T12:33:55.697Z,102434.06
2022-12-01T12:36:58.056Z,102428.53
2022-12-01T12:39:30.746Z,102432.81
2022-12-01T12:41:58.696Z,102432.38
2022-12-01T12:44:37.259Z,102429.53
2022-12-01T12:47:14.667Z,102434.06
2022-12-01T12:49:48.295Z,102432.38
2022-12-01T12:52:23.441Z,102431.94
2022-12-01T12:55:28.160Z,102433.22
2022-12-01T12:58:13.139Z,102436.75
2022-12-01T13:00:46.796Z,102434.06
2022-12-01T13:03:29.234Z,102422.41
2022-12-01T13:06:18.484Z,102434.34
2022-12-01T13:08:55.530Z,102424.41
2022-12-01T13:11:29.985Z,102423.72
2022-12-01T13:14:06.560Z,102421.72
2022-12-01T13:16:41.755Z,102417.56
2022-12-01T13:19:30.877Z,102416.56
2022-12-01T13:21:59.244Z,102420.56
2022-12-01T13:24:29.701Z,102419.44
2022-12-01T13:27:07.788Z,102418.56
2022-12-01T13:29:43.704Z,102418.31
2022-12-01T13:32:31.479Z,102420.00
2022-12-01T13:34:59.433Z,102417.56
2022-12-01T13:37:37.809Z,102422.72
2022-12-01T13:40:22.533Z,102429.22
2022-12-01T13:43:10.269Z,102420.72
2022-12-01T13:45:40.042Z,102420.56
2022-12-01T13:48:25.549Z,102425.53
2022-12-01T13:51:03.775Z,102424.13
2022-12-01T13:53:36.330Z,102418.31
2022-12-01T13:56:08.815Z,102422.97
2022-12-01T13:58:35.330Z,102423.72
2022-12-01T14:01:20.592Z,102423.72
2022-12-01T14:04:03.330Z,102417.56
2022-12-01T14:06:35.888Z,102418.44
2022-12-01T14:09:28.618Z,102418.72
2022-12-01T14:12:04.199Z,102419.56
2022-12-01T14:14:40.139Z,102413.91
2022-12-01T14:17:22.582Z,102414.47
2022-12-01T14:19:54.099Z,102415.47
2022-12-01T14:22:37.381Z,102407.06
2022-12-01T14:25:21.093Z,102411.47
2022-12-01T14:27:51.274Z,102405.38
2022-12-01T14:30:44.995Z,102415.03
2022-12-01T14:34:02.659Z,102415.88
2022-12-01T14:36:36.054Z,102412.63
2022-12-01T14:39:13.194Z,102406.22
2022-12-01T14:41:51.125Z,102409.47
2022-12-01T14:44:29.917Z,102405.38
2022-12-01T14:47:06.807Z,102406.50
2022-12-01T14:50:01.172Z,102409.78
2022-12-01T14:52:38.543Z,102407.06
2022-12-01T14:55:14.844Z,102405.22
2022-12-01T14:57:46.151Z,102404.38
2022-12-01T15:00:14.617Z,102402.81
2022-12-01T15:03:07.934Z,102403.81
2022-12-01T15:05:40.459Z,102400.25
2022-12-01T15:11:22.709Z,102386.63
2022-12-01T15:13:54.813Z,102399.41
2022-12-01T15:16:26.856Z,102384.63
2022-12-01T15:18:54.129Z,102388.03
2022-12-01T15:21:30.575Z,102397.72
2022-12-01T15:23:59.862Z,102396.88
2022-12-01T15:26:32.652Z,102398.97
2022-12-01T15:29:15.604Z,102396.13
2022-12-01T15:31:45.291Z,102397.97
2022-12-01T15:34:17.062Z,102395.13
2022-12-01T15:36:44.780Z,102389.19
2022-12-01T15:39:35.279Z,102395.88
2022-12-01T15:42:03.116Z,102394.56
2022-12-01T15:44:37.164Z,102394.03
2022-12-01T15:47:36.125Z,102390.72
2022-12-01T15:50:05.589Z,102389.19
2022-12-01T15:52:43.984Z,102398.81
2022-12-01T15:55:29.882Z,102397.97
2022-12-01T15:57:57.390Z,102405.06
2022-12-01T16:00:24.613Z,102403.97
2022-12-01T16:02:54.663Z,102397.81
2022-12-01T16:05:30.398Z,102392.72
2022-12-01T16:08:13.939Z,102397.13
2022-12-01T16:10:40.792Z,102398.81
2022-12-01T16:13:35.203Z,102400.25
2022-12-01T16:16:30.736Z,102397.81
2022-12-01T16:19:04.154Z,102400.97
2022-12-01T16:21:43.057Z,102397.81
2022-12-01T16:24:15.732Z,102400.53
2022-12-01T16:27:23.671Z,102388.03
2022-12-01T16:29:57.380Z,102404.53
2022-12-01T16:32:33.516Z,102402.53
2022-12-01T16:35:00.457Z,102399.13
2022-12-01T16:37:27.545Z,102402.25
2022-12-01T16:39:54.217Z,102407.91
2022-12-01T16:42:21.978Z,102398.41
2022-12-01T16:44:50.545Z,102412.75
2022-12-01T16:47:25.408Z,102400.13
2022-12-01T16:49:52.896Z,102409.06
2022-12-01T16:52:43.833Z,102404.38
2022-12-01T16:55:42.425Z,102407.06
2022-12-01T16:58:09.423Z,102416.75
2022-12-01T17:00:36.061Z,102409.34
2022-12-01T17:03:02.987Z,102412.47
2022-12-01T17:05:29.765Z,102404.53
2022-12-01T17:07:56.527Z,102410.38
2022-12-01T17:10:24.044Z,102409.50
2022-12-01T17:12:51.280Z,102405.94
2022-12-01T17:15:18.031Z,102405.81
2022-12-01T17:17:44.653Z,102403.53
2022-12-01T17:20:11.835Z,102402.53
2022-12-01T17:22:38.500Z,102398.41
2022-12-01T17:25:05.715Z,102402.66
2022-12-01T17:27:32.753Z,102393.44
2022-12-01T17:30:00.179Z,102391.16
2022-12-01T17:32:27.851Z,102405.94
2022-12-01T17:34:54.915Z,102401.97
2022-12-01T17:37:21.647Z,102394.97
2022-12-01T17:39:49.592Z,102394.72
2022-12-01T17:42:17.121Z,102395.41
2022-12-01T17:44:43.730Z,102392.56
2022-12-01T17:47:10.396Z,102395.97
2022-12-01T17:49:37.336Z,102396.81
2022-12-01T17:52:08.275Z,102402.06
2022-12-01T17:54:34.903Z,102401.91
2022-12-01T17:57:01.488Z,102399.66
2022-12-01T17:59:28.138Z,102393.41
2022-12-01T18:01:54.807Z,102395.41
2022-12-01T18:04:21.804Z,102396.78
2022-12-01T18:06:53.707Z,102399.66
2022-12-01T18:09:21.747Z,102396.09
2022-12-01T18:11:48.454Z,102391.09
2022-12-01T18:14:17.794Z,102394.66
2022-12-01T18:16:45.614Z,102389.84
2022-12-01T18:19:12.572Z,102391.84
2022-12-01T18:21:39.804Z,102389.84
2022-12-01T18:24:08.877Z,102399.81
2022-12-01T18:26:38.081Z,102390.00
2022-12-01T18:29:16.634Z,102389.16
2022-12-01T18:31:43.419Z,102389.41
2022-12-01T18:34:11.205Z,102384.31
2022-12-01T18:36:40.719Z,102387.16
2022-12-01T18:39:09.170Z,102391.41
2022-12-01T18:41:36.671Z,102379.22
2022-12-01T18:44:04.191Z,102375.81
2022-12-01T18:46:31.010Z,102375.81
2022-12-01T18:49:02.814Z,102378.66
2022-12-01T18:51:31.205Z,102377.81
2022-12-01T18:53:59.165Z,102377.81
2022-12-01T18:56:27.220Z,102381.91
2022-12-01T18:58:58.553Z,102379.22
2022-12-01T19:01:37.660Z,102380.63
2022-12-01T19:04:05.974Z,102389.16
2022-12-01T19:06:34.274Z,102381.91
2022-12-01T19:09:03.752Z,102386.47
2022-12-01T19:11:30.427Z,102379.78
2022-12-01T19:13:57.592Z,102384.03
2022-12-01T19:16:24.451Z,102383.47
2022-12-01T19:18:51.123Z,102377.38
2022-12-01T19:21:19.146Z,102377.78
2022-12-01T19:23:47.089Z,102384.31
2022-12-01T19:26:17.463Z,102383.47
2022-12-01T19:28:45.745Z,102375.22
2022-12-01T19:31:15.634Z,102380.63
2022-12-01T19:33:42.270Z,102380.91
2022-12-01T19:36:11.368Z,102372.13
2022-12-01T19:38:38.431Z,102381.06
2022-12-01T19:41:06.019Z,102359.63
2022-12-01T19:43:36.522Z,102373.81
2022-12-01T19:46:18.243Z,102370.13
2022-12-01T19:48:45.459Z,102372.81
2022-12-01T19:51:20.287Z,102367.13
2022-12-01T19:53:47.842Z,102365.88
2022-12-01T19:56:14.537Z,102371.13
2022-12-01T19:58:41.271Z,102368.84
2022-12-01T20:01:10.820Z,102379.22
2022-12-01T20:03:38.208Z,102376.22
2022-12-01T20:06:07.040Z,102382.34
2022-12-01T20:08:36.073Z,102380.38
2022-12-01T20:11:04.374Z,102369.56
2022-12-01T20:13:32.568Z,102376.66
2022-12-01T20:16:08.075Z,102379.50
2022-12-01T20:18:35.927Z,102375.22
2022-12-01T20:21:28.014Z,102374.13
2022-12-01T20:24:00.438Z,102374.38
2022-12-01T20:26:30.915Z,102376.38
2022-12-01T20:29:04.201Z,102375.13
2022-12-01T20:31:32.728Z,102370.13
2022-12-01T20:34:02.191Z,102379.06
2022-12-01T20:36:28.979Z,102376.81
2022-12-01T20:38:55.704Z,102380.22
2022-12-01T20:41:22.338Z,102376.53
2022-12-01T20:43:48.943Z,102381.91
2022-12-01T20:46:16.125Z,102376.91
2022-12-01T20:48:43.122Z,102378.34
2022-12-01T20:51:12.485Z,102383.47
2022-12-01T20:53:39.303Z,102375.50
2022-12-01T20:56:08.566Z,102378.22
2022-12-01T20:58:37.638Z,102385.31
2022-12-01T21:01:17.199Z,102377.91
2022-12-01T21:03:45.654Z,102377.34
2022-12-01T21:06:14.158Z,102374.66
2022-12-01T21:08:43.169Z,102373.81
2022-12-01T21:12:02.168Z,102368.41
2022-12-01T21:14:43.591Z,102363.88
2022-12-01T21:17:28.394Z,102376.91
2022-12-01T21:20:32.763Z,102386.03
2022-12-01T21:23:05.976Z,102377.50
2022-12-01T21:25:33.519Z,102383.78
2022-12-01T21:28:03.622Z,102378.38
2022-12-01T21:30:30.529Z,102378.06
2022-12-01T21:33:36.801Z,102374.13
2022-12-01T21:36:14.007Z,102373.38
2022-12-01T21:38:42.753Z,102377.81
2022-12-01T21:41:27.257Z,102378.66
2022-12-01T21:43:55.627Z,102374.13
2022-12-01T21:46:22.625Z,102376.66
2022-12-01T21:48:50.079Z,102382.63
2022-12-01T21:51:20.665Z,102375.81
2022-12-01T21:53:48.551Z,102371.41
2022-12-01T21:56:21.285Z,102372.97
2022-12-01T21:58:48.676Z,102367.97
2022-12-01T22:01:23.216Z,102368.72
2022-12-01T22:03:49.964Z,102371.53
2022-12-01T22:06:30.771Z,102368.84
2022-12-01T22:09:11.947Z,102368.97
2022-12-01T22:11:38.556Z,102367.00
2022-12-01T22:14:16.034Z,102368.72
2022-12-01T22:17:03.912Z,102369.84
2022-12-01T22:19:33.342Z,102357.19
2022-12-01T22:22:09.129Z,102363.44
2022-12-01T22:24:42.716Z,102363.88
2022-12-01T22:27:18.169Z,102354.91
2022-12-01T22:29:47.585Z,102356.47
2022-12-01T22:32:14.118Z,102354.22
2022-12-01T22:34:51.355Z,102352.22
2022-12-01T22:37:24.190Z,102345.97
2022-12-01T22:39:55.154Z,102346.81
2022-12-01T22:42:35.403Z,102347.66
2022-12-01T22:45:22.452Z,102348.81
2022-12-01T22:47:49.109Z,102338.72
2022-12-01T22:50:31.033Z,102332.63
2022-12-01T22:53:01.927Z,102338.28
2022-12-01T22:55:28.493Z,102339.59
2022-12-01T22:57:55.079Z,102325.09
2022-12-01T23:00:23.213Z,102336.59
2022-12-01T23:02:52.443Z,102333.88
2022-12-01T23:05:25.331Z,102329.22
2022-12-01T23:07:52.942Z,102339.13
2022-12-01T23:10:25.310Z,102332.34
2022-12-01T23:12:54.931Z,102325.53
2022-12-01T23:15:31.371Z,102331.03
2022-12-01T23:18:32.046Z,102331.63
2022-12-01T23:21:01.008Z,102322.94
2022-12-01T23:23:33.358Z,102322.09
2022-12-01T23:26:03.365Z,102314.84
2022-12-01T23:28:30.507Z,102311.28
2022-12-01T23:30:59.699Z,102314.13
2022-12-01T23:33:29.434Z,102314.13
2022-12-01T23:36:00.087Z,102315.84
2022-12-01T23:38:36.139Z,102315.84
2022-12-01T23:41:07.014Z,102315.56
2022-12-01T23:43:42.964Z,102315.41
2022-12-01T23:46:16.797Z,102310.75
2022-12-01T23:48:48.907Z,102307.88
2022-12-01T23:51:23.379Z,102312.44
2022-12-01T23:53:52.089Z,102309.19
2022-12-01T23:56:24.397Z,102308.19
2022-12-01T23:58:52.619Z,102309.03
